Time;durP1;ratioP1;P1;durP2;ratioP2;P2;SDS_P1;SDS_P2;PMS_P1;PMS_P2;Temp;Humidity;BMP_temperature;BMP_pressure;BME280_temperature;BME280_humidity;BME280_pressure;Samples;Min_cycle;Max_cycle;Signal;HPM_P1;HPM_P2
2023/01/07 00:00:58;;;;;;;8.68;5.63;;;14.00;99.90;;;;;;4983647;28;20045;-63
2023/01/07 00:03:24;;;;;;;6.28;5.25;;;12.60;99.90;;;;;;4982140;28;20043;-64
2023/01/07 00:05:49;;;;;;;9.23;5.10;;;12.80;99.90;;;;;;5000767;28;20097;-64
2023/01/07 00:08:15;;;;;;;6.45;5.03;;;14.20;99.90;;;;;;5015093;28;20049;-64
2023/01/07 00:10:40;;;;;;;9.05;5.60;;;13.10;99.90;;;;;;4983736;28;20038;-64
2023/01/07 00:13:06;;;;;;;5.20;4.70;;;13.20;99.90;;;;;;5013269;28;20041;-64
2023/01/07 00:15:31;;;;;;;8.82;5.90;;;13.00;99.90;;;;;;4992139;28;20034;-64
2023/01/07 00:17:57;;;;;;;9.57;4.88;;;14.20;99.90;;;;;;4997401;28;20039;-64
2023/01/07 00:20:22;;;;;;;8.05;5.20;;;13.10;99.90;;;;;;5010097;28;20065;-64
2023/01/07 00:22:50;;;;;;;10.20;6.55;;;13.60;99.90;;;;;;4997252;28;20038;-64
2023/01/07 00:25:15;;;;;;;6.22;4.35;;;13.30;99.90;;;;;;4994551;28;20037;-65
2023/01/07 00:27:41;;;;;;;8.50;5.72;;;14.00;99.90;;;;;;4984552;28;20046;-65
2023/01/07 00:30:07;;;;;;;8.93;6.28;;;13.40;99.90;;;;;;4981588;28;20424;-65
2023/01/07 00:35:23;;;;;;;13.40;7.22;;;14.40;99.90;;;;;;4986760;28;20152;-65
2023/01/07 00:37:53;;;;;;;13.48;6.68;;;14.60;99.90;;;;;;4994626;28;20038;-65
2023/01/07 00:40:19;;;;;;;9.35;6.03;;;13.20;99.90;;;;;;4992295;28;20046;-64
2023/01/07 00:42:54;;;;;;;9.55;6.82;;;14.00;99.90;;;;;;4995241;28;20100;-64
2023/01/07 00:45:21;;;;;;;11.85;7.13;;;13.60;99.90;;;;;;4990419;28;20088;-64
2023/01/07 00:47:46;;;;;;;13.90;8.73;;;13.40;99.90;;;;;;4987936;28;20037;-65
2023/01/07 00:50:12;;;;;;;9.75;6.72;;;14.60;99.90;;;;;;4985599;28;20057;-65
2023/01/07 00:52:37;;;;;;;9.45;6.85;;;14.60;99.90;;;;;;4990597;28;20095;-64
2023/01/07 00:55:03;;;;;;;10.90;6.85;;;13.60;99.90;;;;;;4984102;28;20053;-64
2023/01/07 00:57:29;;;;;;;10.05;7.18;;;13.60;99.90;;;;;;4982734;28;20038;-65
2023/01/07 00:59:55;;;;;;;10.85;7.25;;;14.30;99.90;;;;;;4992575;28;20050;-65
2023/01/07 01:02:20;;;;;;;11.50;6.97;;;13.70;99.90;;;;;;4986834;28;20128;-65
2023/01/07 01:04:46;;;;;;;8.98;6.30;;;14.30;99.90;;;;;;4995723;28;20034;-64
2023/01/07 01:07:11;;;;;;;8.80;6.70;;;13.50;99.90;;;;;;5008192;28;20034;-65
2023/01/07 01:09:37;;;;;;;7.90;5.75;;;13.70;99.90;;;;;;4993460;28;20045;-64
2023/01/07 01:12:02;;;;;;;9.68;6.97;;;13.90;99.90;;;;;;5005067;28;20403;-65
2023/01/07 01:14:28;;;;;;;10.82;6.00;;;13.90;99.90;;;;;;4977009;28;20074;-64
2023/01/07 01:16:53;;;;;;;9.27;6.07;;;14.10;99.90;;;;;;5007307;28;20121;-65
2023/01/07 01:19:19;;;;;;;9.57;6.38;;;14.00;99.90;;;;;;4989824;28;20054;-65
2023/01/07 01:21:44;;;;;;;13.77;7.35;;;14.60;99.90;;;;;;5010919;28;20042;-65
2023/01/07 01:24:10;;;;;;;11.05;7.05;;;14.70;99.90;;;;;;4994463;28;20057;-64
2023/01/07 01:26:36;;;;;;;8.52;5.72;;;14.60;99.90;;;;;;4992238;28;20100;-65
2023/01/07 01:29:01;;;;;;;12.30;6.60;;;14.70;85.40;;;;;;4987421;28;20140;-65
2023/01/07 01:31:27;;;;;;;8.23;5.07;;;14.60;1.00;;;;;;4989992;28;20045;-65
2023/01/07 01:33:56;;;;;;;8.13;5.05;;;14.00;99.90;;;;;;5011348;28;20049;-64
2023/01/07 01:36:22;;;;;;;10.43;4.65;;;14.00;99.90;;;;;;4985432;28;20230;-65
2023/01/07 01:38:47;;;;;;;10.00;4.82;;;14.20;21.80;;;;;;4995612;28;20164;-65
2023/01/07 01:41:17;;;;;;;9.43;5.20;;;14.60;99.90;;;;;;4985040;28;20056;-65
2023/01/07 01:43:43;;;;;;;9.68;4.53;;;14.50;99.90;;;;;;4985443;28;20069;-65
2023/01/07 01:46:20;;;;;;;6.95;5.40;;;14.40;1.00;;;;;;4978697;28;20034;-64
2023/01/07 01:49:04;;;;;;;7.93;4.97;;;14.50;1.00;;;;;;4977428;28;20487;-64
2023/01/07 01:51:35;;;;;;;8.57;4.28;;;14.90;99.90;;;;;;4993724;28;20124;-65
2023/01/07 01:54:08;;;;;;;6.78;5.15;;;14.40;1.00;;;;;;4994164;28;20068;-65
2023/01/07 01:56:37;;;;;;;8.25;5.25;;;14.30;99.90;;;;;;4983208;28;20045;-65
2023/01/07 01:59:08;;;;;;;9.70;4.53;;;14.80;99.90;;;;;;4999161;28;20646;-65
2023/01/07 02:01:35;;;;;;;8.00;4.20;;;14.80;1.00;;;;;;4979273;28;20060;-65
2023/01/07 02:04:06;;;;;;;8.05;4.55;;;14.30;1.00;;;;;;5489065;23;20566;-71
2023/01/07 02:06:35;;;;;;;7.95;5.70;;;14.30;99.90;;;;;;4931598;29;20220;-70
2023/01/07 02:09:01;;;;;;;6.85;5.35;;;14.60;99.90;;;;;;4952705;28;20036;-70
2023/01/07 02:11:46;;;;;;;8.68;5.28;;;14.80;33.50;;;;;;4953163;29;20066;-70
2023/01/07 02:14:56;;;;;;;10.85;5.97;;;14.30;1.00;;;;;;4952998;29;20546;-70
2023/01/07 02:17:21;;;;;;;8.90;5.47;;;14.30;1.00;;;;;;4949159;29;20411;-71
2023/01/07 02:20:10;;;;;;;7.47;5.43;;;14.80;1.00;;;;;;4952873;29;20043;-70
2023/01/07 02:23:14;;;;;;;7.82;6.22;;;14.30;1.00;;;;;;4950355;29;20086;-70
2023/01/07 02:26:18;;;;;;;10.52;8.75;;;14.30;1.00;;;;;;4945384;29;20046;-70
2023/01/07 02:29:13;;;;;;;10.88;9.13;;;14.20;1.00;;;;;;4934468;29;20052;-70
2023/01/07 02:32:00;;;;;;;13.20;11.85;;;14.10;1.00;;;;;;4948880;29;20043;-70
2023/01/07 02:34:34;;;;;;;17.02;14.13;;;14.80;1.00;;;;;;4952062;29;20094;-70
2023/01/07 02:37:12;;;;;;;13.00;11.60;;;14.20;1.00;;;;;;4949054;28;20039;-70
2023/01/07 02:39:59;;;;;;;17.15;14.35;;;14.20;99.90;;;;;;4953297;29;20484;-70
2023/01/07 02:42:46;;;;;;;12.80;11.07;;;14.70;94.50;;;;;;4962288;28;20051;-71
2023/01/07 02:46:15;;;;;;;13.65;11.88;;;14.80;1.80;;;;;;4940224;29;20051;-70
2023/01/07 02:48:40;;;;;;;;;;;13.90;1.00;;;;;;4879181;29;20525;-71
2023/01/07 02:51:06;;;;;;;16.13;12.50;;;14.10;99.90;;;;;;4877605;29;19927;-71
2023/01/07 02:53:32;;;;;;;13.05;10.73;;;14.10;99.90;;;;;;4924668;29;20051;-70
2023/01/07 02:56:28;;;;;;;14.50;11.10;;;14.20;99.90;;;;;;4946523;29;20039;-71
2023/01/07 02:59:25;;;;;;;15.52;11.80;;;14.50;99.90;;;;;;4952548;29;20500;-70
2023/01/07 03:02:03;;;;;;;14.38;12.98;;;14.40;99.90;;;;;;4934192;29;20054;-71
2023/01/07 03:04:58;;;;;;;17.77;15.20;;;14.70;1.00;;;;;;4951464;28;20555;-70
2023/01/07 03:07:44;;;;;;;15.80;13.35;;;14.20;1.00;;;;;;4950560;29;20049;-70
2023/01/07 03:10:28;;;;;;;16.50;14.07;;;14.40;1.00;;;;;;4952843;29;20046;-70
2023/01/07 03:13:01;;;;;;;16.13;13.95;;;13.90;1.00;;;;;;4952524;29;20059;-70
2023/01/07 03:15:39;;;;;;;13.05;11.65;;;14.30;1.00;;;;;;4954483;28;20066;-70
2023/01/07 03:18:13;;;;;;;14.10;11.80;;;14.30;1.00;;;;;;4947873;29;20396;-70
2023/01/07 03:20:41;;;;;;;15.57;13.32;;;13.70;1.00;;;;;;4948416;29;20054;-71
2023/01/07 03:23:12;;;;;;;13.55;11.77;;;14.50;1.00;;;;;;4952747;29;20509;-71
2023/01/07 03:25:43;;;;;;;15.43;11.75;;;13.90;99.90;;;;;;4952881;29;20485;-71
2023/01/07 03:28:12;;;;;;;13.10;11.25;;;13.90;99.90;;;;;;4949915;29;20039;-71
2023/01/07 03:30:38;;;;;;;14.52;12.80;;;14.00;99.90;;;;;;4935168;29;20039;-69
2023/01/07 03:33:16;;;;;;;14.25;12.75;;;13.90;99.90;;;;;;4952776;29;20472;-71
2023/01/07 03:35:46;;;;;;;15.77;11.93;;;14.50;99.90;;;;;;4951743;29;20047;-70
2023/01/07 03:38:13;;;;;;;14.60;13.07;;;13.80;99.90;;;;;;4949439;29;20448;-70
2023/01/07 03:40:39;;;;;;;12.98;10.68;;;13.90;99.90;;;;;;4952721;29;20047;-70
2023/01/07 03:43:12;;;;;;;12.32;10.98;;;14.50;99.90;;;;;;4967699;28;20043;-71
2023/01/07 03:45:38;;;;;;;18.48;13.80;;;13.80;99.90;;;;;;4952361;29;20035;-71
2023/01/07 03:48:03;;;;;;;14.80;10.95;;;14.30;90.80;;;;;;4951752;29;20046;-71
2023/01/07 03:50:29;;;;;;;12.63;10.65;;;14.30;1.00;;;;;;4953303;28;20031;-71
2023/01/07 03:52:54;;;;;;;12.00;10.77;;;13.60;1.00;;;;;;4955233;29;20119;-71
2023/01/07 03:55:20;;;;;;;13.20;11.10;;;14.10;99.90;;;;;;4955573;29;20491;-70
2023/01/07 03:57:46;;;;;;;11.02;9.07;;;14.30;1.00;;;;;;4955510;29;20077;-71
2023/01/07 04:00:12;;;;;;;13.85;10.75;;;13.70;43.30;;;;;;4953682;29;20063;-71
2023/01/07 04:02:38;;;;;;;14.98;11.13;;;14.10;94.80;;;;;;4955923;29;20086;-71
2023/01/07 04:05:04;;;;;;;13.95;10.52;;;14.20;96.20;;;;;;4953885;28;20548;-71
2023/01/07 04:07:29;;;;;;;13.82;11.40;;;14.40;1.00;;;;;;4954347;29;20122;-70
2023/01/07 04:09:55;;;;;;;13.95;10.57;;;13.80;1.00;;;;;;4955298;29;20043;-71
2023/01/07 04:12:21;;;;;;;15.25;11.07;;;13.70;99.90;;;;;;4955931;29;20039;-71
2023/01/07 04:14:46;;;;;;;14.50;10.45;;;14.30;99.90;;;;;;4954269;29;20501;-70
2023/01/07 04:17:12;;;;;;;12.32;10.73;;;14.30;99.90;;;;;;4955262;29;20386;-70
2023/01/07 04:19:38;;;;;;;11.80;9.98;;;14.30;99.90;;;;;;4955514;29;20082;-70
2023/01/07 04:22:05;;;;;;;15.60;11.50;;;14.20;99.90;;;;;;4955314;29;20050;-71
2023/01/07 04:24:31;;;;;;;14.25;9.88;;;14.40;99.90;;;;;;4955592;29;20053;-70
2023/01/07 04:26:57;;;;;;;15.30;12.23;;;14.40;99.90;;;;;;4950853;29;20519;-70
2023/01/07 04:29:23;;;;;;;12.88;11.07;;;13.80;99.90;;;;;;4953243;29;20074;-70
2023/01/07 04:31:49;;;;;;;16.35;12.38;;;14.20;99.90;;;;;;4939334;29;20042;-70
2023/01/07 04:34:14;;;;;;;17.45;14.00;;;14.30;99.90;;;;;;4955129;29;20039;-71
2023/01/07 04:36:40;;;;;;;16.45;12.50;;;13.80;99.90;;;;;;4953480;29;20046;-70
2023/01/07 04:39:05;;;;;;;16.50;14.15;;;13.50;1.00;;;;;;4952391;29;20477;-70
2023/01/07 04:41:31;;;;;;;16.60;12.70;;;13.60;58.30;;;;;;4954281;29;20047;-70
2023/01/07 04:43:56;;;;;;;16.73;11.90;;;13.70;30.80;;;;;;4954333;29;20501;-70
2023/01/07 04:46:24;;;;;;;15.75;12.20;;;13.50;1.00;;;;;;4954389;29;20066;-71
2023/01/07 04:48:49;;;;;;;16.33;12.68;;;13.40;1.00;;;;;;4953713;29;20035;-70
2023/01/07 04:51:15;;;;;;;16.23;13.43;;;13.80;27.80;;;;;;4949671;29;20055;-71
2023/01/07 04:53:41;;;;;;;15.23;12.95;;;13.50;89.40;;;;;;4953496;29;20125;-70
2023/01/07 04:56:06;;;;;;;16.85;11.23;;;13.80;99.90;;;;;;4951612;29;20058;-71
2023/01/07 04:58:32;;;;;;;16.60;13.85;;;13.70;99.90;;;;;;4953911;29;20126;-70
2023/01/07 05:00:58;;;;;;;15.82;13.18;;;13.70;99.90;;;;;;4938120;29;20039;-72
2023/01/07 05:03:24;;;;;;;16.75;14.32;;;14.00;99.90;;;;;;4969543;28;20108;-71
2023/01/07 05:05:50;;;;;;;17.90;12.82;;;14.40;99.90;;;;;;4954562;29;20182;-70
2023/01/07 05:08:15;;;;;;;17.77;14.18;;;13.70;82.80;;;;;;4953154;29;20043;-71
2023/01/07 05:10:41;;;;;;;18.20;14.48;;;13.70;10.90;;;;;;4954520;29;20050;-71
2023/01/07 05:13:11;;;;;;;21.45;16.30;;;13.60;1.00;;;;;;4952442;29;20118;-71
2023/01/07 05:15:36;;;;;;;17.05;15.05;;;13.50;1.00;;;;;;4954176;29;20043;-70
2023/01/07 05:18:02;;;;;;;18.35;13.55;;;13.50;1.00;;;;;;4954106;29;20039;-70
2023/01/07 05:20:28;;;;;;;20.08;15.32;;;13.60;1.00;;;;;;4954652;29;20042;-71
2023/01/07 05:22:53;;;;;;;20.38;14.13;;;13.70;1.00;;;;;;4952722;29;20493;-70
2023/01/07 05:25:19;;;;;;;20.13;15.50;;;14.00;2.80;;;;;;4953398;29;20035;-70
2023/01/07 05:27:44;;;;;;;15.52;12.73;;;14.10;17.90;;;;;;4953753;29;20432;-71
2023/01/07 05:30:10;;;;;;;20.95;14.40;;;13.90;5.40;;;;;;4953231;29;20109;-70
2023/01/07 05:32:36;;;;;;;16.90;13.10;;;14.20;1.00;;;;;;4954777;29;20042;-71
2023/01/07 05:35:01;;;;;;;15.05;12.68;;;14.00;1.00;;;;;;4953771;29;20055;-70
2023/01/07 05:37:27;;;;;;;18.75;13.88;;;13.60;1.00;;;;;;4952974;29;20049;-71
2023/01/07 05:39:52;;;;;;;15.57;13.25;;;13.80;1.00;;;;;;4952687;29;20039;-70
2023/01/07 05:42:18;;;;;;;18.10;13.73;;;14.10;99.90;;;;;;4937525;29;20082;-72
2023/01/07 05:44:44;;;;;;;18.58;12.70;;;14.10;99.90;;;;;;4954166;29;20035;-71
2023/01/07 05:47:09;;;;;;;16.42;12.60;;;14.00;99.90;;;;;;4952674;29;20039;-70
2023/01/07 05:49:35;;;;;;;15.25;12.00;;;14.00;99.90;;;;;;4948023;29;20187;-71
2023/01/07 05:52:00;;;;;;;15.90;11.43;;;13.60;99.90;;;;;;4937579;29;20044;-71
2023/01/07 05:54:26;;;;;;;16.40;11.68;;;13.60;99.90;;;;;;4953863;29;20054;-71
2023/01/07 05:56:51;;;;;;;12.77;10.55;;;13.00;99.90;;;;;;4947634;29;20050;-71
2023/01/07 05:59:17;;;;;;;16.13;11.63;;;12.70;99.90;;;;;;4953391;29;20102;-71
2023/01/07 06:01:42;;;;;;;18.90;12.20;;;12.30;99.90;;;;;;4952262;29;20054;-71
2023/01/07 06:04:08;;;;;;;17.77;12.52;;;11.80;99.90;;;;;;4952882;28;20527;-71
2023/01/07 06:06:33;;;;;;;12.88;10.52;;;11.80;99.90;;;;;;4953332;29;20432;-72
2023/01/07 06:08:59;;;;;;;16.10;12.23;;;12.00;30.30;;;;;;4952810;29;20046;-71
2023/01/07 06:11:24;;;;;;;16.95;11.07;;;11.50;11.40;;;;;;4935348;29;20067;-71
2023/01/07 06:13:50;;;;;;;15.00;10.95;;;11.90;1.00;;;;;;4952656;28;20051;-71
2023/01/07 06:16:16;;;;;;;18.45;12.55;;;11.50;1.00;;;;;;4953217;29;20078;-71
2023/01/07 06:18:41;;;;;;;13.93;10.18;;;11.40;1.00;;;;;;4953402;29;20043;-71
2023/01/07 06:21:07;;;;;;;16.25;10.88;;;11.50;1.00;;;;;;4949322;29;20032;-70
2023/01/07 06:23:32;;;;;;;18.50;10.30;;;11.50;1.00;;;;;;4953443;29;20101;-70
2023/01/07 06:25:58;;;;;;;13.35;9.93;;;12.00;1.00;;;;;;4938152;29;20043;-71
2023/01/07 06:28:24;;;;;;;13.60;10.50;;;11.90;1.00;;;;;;4952657;29;20422;-71
2023/01/07 06:30:49;;;;;;;16.92;10.73;;;11.60;1.00;;;;;;4949571;29;20042;-71
2023/01/07 06:33:15;;;;;;;16.98;10.13;;;12.00;1.00;;;;;;4952491;29;20543;-71
2023/01/07 06:35:43;;;;;;;18.77;11.20;;;11.60;1.00;;;;;;4952816;29;20413;-72
2023/01/07 06:38:08;;;;;;;18.08;12.45;;;11.60;99.90;;;;;;4968357;28;20082;-71
2023/01/07 06:40:34;;;;;;;19.50;11.48;;;12.00;99.90;;;;;;4952326;29;20086;-71
2023/01/07 06:42:59;;;;;;;18.30;10.85;;;11.60;99.90;;;;;;4936990;29;20079;-71
2023/01/07 06:45:25;;;;;;;23.83;13.95;;;11.60;99.90;;;;;;4951560;29;20039;-71
2023/01/07 06:47:50;;;;;;;16.40;11.48;;;12.10;99.90;;;;;;4953038;29;20047;-70
2023/01/07 06:50:16;;;;;;;14.82;9.60;;;11.70;99.90;;;;;;4943622;29;20035;-72
2023/01/07 06:52:42;;;;;;;15.57;10.35;;;11.60;99.90;;;;;;4951623;29;20047;-71
2023/01/07 06:55:08;;;;;;;16.23;11.02;;;11.90;99.90;;;;;;4952490;29;20039;-72
2023/01/07 06:57:33;;;;;;;19.55;11.27;;;12.00;1.00;;;;;;4938449;29;20035;-71
2023/01/07 06:59:59;;;;;;;10.48;7.65;;;12.10;99.90;;;;;;4942425;29;20039;-71
2023/01/07 07:02:26;;;;;;;11.35;8.82;;;12.10;99.90;;;;;;4934218;29;20382;-71
2023/01/07 07:04:52;;;;;;;12.80;9.70;;;11.90;99.90;;;;;;4950677;28;20134;-71
2023/01/07 07:07:18;;;;;;;17.10;10.45;;;12.30;99.90;;;;;;4952531;29;20122;-71
2023/01/07 07:09:44;;;;;;;19.80;11.80;;;11.90;99.90;;;;;;4945681;29;20090;-71
2023/01/07 07:12:10;;;;;;;15.77;11.40;;;11.70;99.90;;;;;;4952364;29;20102;-70
2023/01/07 07:14:36;;;;;;;16.38;10.55;;;12.00;99.90;;;;;;4952615;29;20035;-72
2023/01/07 07:17:02;;;;;;;15.52;9.90;;;12.20;97.60;;;;;;4951052;29;20453;-71
2023/01/07 07:19:27;;;;;;;17.02;10.30;;;11.70;65.80;;;;;;4952772;29;20413;-71
2023/01/07 07:21:53;;;;;;;17.85;10.82;;;11.70;26.30;;;;;;4952199;29;20043;-71
2023/01/07 07:24:18;;;;;;;10.93;8.00;;;11.80;99.90;;;;;;4951016;28;20039;-70
2023/01/07 07:26:44;;;;;;;12.35;9.35;;;12.20;99.90;;;;;;4940984;29;20039;-71
2023/01/07 07:29:10;;;;;;;13.30;9.20;;;11.80;98.40;;;;;;4953668;29;20050;-71
2023/01/07 07:31:36;;;;;;;14.52;9.65;;;11.90;92.80;;;;;;4956029;29;20420;-71
2023/01/07 07:34:02;;;;;;;12.93;9.30;;;12.30;88.00;;;;;;4939715;29;20452;-72
2023/01/07 07:36:27;;;;;;;14.07;9.88;;;12.10;9.10;;;;;;4954391;29;20035;-71
2023/01/07 07:38:53;;;;;;;16.75;9.77;;;12.30;1.00;;;;;;4954809;29;20044;-71
2023/01/07 07:41:18;;;;;;;17.38;9.77;;;12.20;1.00;;;;;;4939892;29;20047;-71
2023/01/07 07:43:44;;;;;;;14.82;8.68;;;11.80;1.00;;;;;;4955736;29;20047;-71
2023/01/07 07:46:09;;;;;;;12.57;8.30;;;12.20;1.00;;;;;;4956089;29;20039;-72
2023/01/07 07:48:35;;;;;;;12.82;7.80;;;11.80;1.00;;;;;;4954567;29;20416;-72
2023/01/07 07:51:00;;;;;;;17.30;8.85;;;11.90;1.00;;;;;;4952913;28;20061;-72
2023/01/07 07:53:26;;;;;;;11.40;9.00;;;11.90;1.00;;;;;;4954750;29;20047;-71
2023/01/07 07:55:54;;;;;;;7.93;6.22;;;12.10;1.00;;;;;;4952487;29;20050;-72
2023/01/07 07:58:20;;;;;;;10.63;7.50;;;12.00;1.00;;;;;;4953343;29;20130;-72
2023/01/07 08:00:46;;;;;;;15.95;7.82;;;12.10;1.00;;;;;;4955336;29;20134;-71
2023/01/07 08:03:12;;;;;;;10.35;7.75;;;12.00;99.90;;;;;;4954917;28;20051;-72
2023/01/07 08:05:42;;;;;;;19.25;7.53;;;12.00;99.90;;;;;;4955603;29;20045;-72
2023/01/07 08:08:10;;;;;;;9.23;6.72;;;12.30;99.90;;;;;;4954263;29;20108;-72
2023/01/07 08:10:36;;;;;;;10.20;6.53;;;11.90;99.90;;;;;;4955761;29;20505;-72
2023/01/07 08:13:02;;;;;;;9.90;7.43;;;12.30;99.90;;;;;;4937259;29;20544;-72
2023/01/07 08:15:28;;;;;;;6.72;5.30;;;12.00;99.90;;;;;;4950066;29;20039;-71
2023/01/07 08:18:03;;;;;;;13.38;7.35;;;12.30;99.90;;;;;;4950055;29;20043;-72
2023/01/07 08:20:29;;;;;;;9.00;5.82;;;12.30;99.90;;;;;;4947530;29;20031;-72
2023/01/07 08:22:59;;;;;;;10.65;5.70;;;12.40;99.90;;;;;;4947262;29;20040;-71
2023/01/07 08:25:24;;;;;;;10.02;5.90;;;12.10;84.60;;;;;;4969689;28;20481;-72
2023/01/07 08:27:50;;;;;;;10.77;5.78;;;12.10;77.40;;;;;;4953430;29;20042;-71
2023/01/07 08:30:16;;;;;;;7.72;5.30;;;12.30;52.80;;;;;;4935416;29;20038;-72
2023/01/07 08:32:41;;;;;;;8.23;4.65;;;12.40;1.00;;;;;;4952970;29;20039;-71
2023/01/07 08:35:07;;;;;;;8.95;5.10;;;12.00;1.00;;;;;;4954293;28;20047;-72
2023/01/07 08:37:33;;;;;;;11.73;5.75;;;12.40;1.00;;;;;;4968780;28;20047;-72
2023/01/07 08:39:59;;;;;;;8.52;5.40;;;12.10;1.00;;;;;;4952655;28;20381;-71
2023/01/07 08:42:24;;;;;;;10.52;4.88;;;12.40;1.00;;;;;;4954383;29;20039;-72
2023/01/07 08:44:50;;;;;;;6.93;4.25;;;12.40;99.90;;;;;;4948295;28;20445;-72
2023/01/07 08:47:15;;;;;;;7.88;4.57;;;12.40;99.90;;;;;;4931711;29;20051;-72
2023/01/07 08:49:41;;;;;;;7.40;3.83;;;12.20;99.90;;;;;;4951139;29;20142;-71
2023/01/07 08:52:06;;;;;;;5.70;4.22;;;12.10;99.90;;;;;;4954528;29;20170;-71
2023/01/07 08:54:32;;;;;;;7.88;4.80;;;12.10;99.90;;;;;;4955453;29;20105;-71
2023/01/07 08:56:58;;;;;;;7.63;3.90;;;12.40;81.20;;;;;;4950514;29;20401;-70
2023/01/07 08:59:23;;;;;;;6.63;4.00;;;12.20;1.00;;;;;;4951659;29;20043;-72
2023/01/07 09:01:49;;;;;;;5.80;4.05;;;12.00;1.00;;;;;;4952000;29;20043;-71
2023/01/07 09:04:14;;;;;;;4.50;3.35;;;12.30;1.00;;;;;;4954834;29;20539;-71
2023/01/07 09:06:40;;;;;;;6.50;4.05;;;12.20;1.00;;;;;;4938438;29;20055;-72
2023/01/07 09:09:05;;;;;;;6.93;3.80;;;12.10;1.00;;;;;;4951294;29;20055;-71
2023/01/07 09:11:31;;;;;;;5.25;3.53;;;12.40;1.00;;;;;;4936030;29;20050;-72
2023/01/07 09:13:56;;;;;;;8.27;3.78;;;12.20;99.90;;;;;;4953695;29;20049;-72
2023/01/07 09:16:22;;;;;;;4.70;3.35;;;12.20;99.90;;;;;;4937227;29;20098;-72
2023/01/07 09:18:48;;;;;;;7.97;3.42;;;11.90;99.90;;;;;;4952181;29;20071;-71
2023/01/07 09:21:14;;;;;;;5.75;3.15;;;12.20;99.90;;;;;;4951379;29;20043;-72
2023/01/07 09:23:39;;;;;;;7.03;3.72;;;12.10;99.90;;;;;;4952944;29;20031;-72
2023/01/07 09:26:05;;;;;;;5.40;3.00;;;12.30;99.90;;;;;;4952512;29;20094;-72
2023/01/07 09:28:31;;;;;;;5.30;3.10;;;12.10;99.90;;;;;;4948714;29;20138;-72
2023/01/07 09:30:57;;;;;;;7.90;2.85;;;12.10;99.90;;;;;;4953569;29;20424;-70
2023/01/07 09:33:23;;;;;;;6.38;2.85;;;12.30;51.00;;;;;;4935817;29;20035;-72
2023/01/07 09:35:49;;;;;;;4.93;2.33;;;12.30;77.70;;;;;;4951200;28;20035;-71
2023/01/07 09:38:14;;;;;;;6.38;2.60;;;12.30;38.00;;;;;;4933307;29;20802;-72
2023/01/07 09:40:41;;;;;;;3.10;2.55;;;12.20;27.90;;;;;;4953620;29;20043;-71
2023/01/07 09:43:34;;;;;;;5.22;3.03;;;12.40;7.90;;;;;;4952513;29;20508;-71
2023/01/07 09:46:01;;;;;;;5.88;2.72;;;12.20;1.00;;;;;;4963014;28;20527;-71
2023/01/07 09:48:49;;;;;;;4.65;2.80;;;12.30;1.00;;;;;;4950895;28;20504;-72
2023/01/07 09:51:20;;;;;;;4.22;2.40;;;12.50;1.00;;;;;;4948656;29;20121;-66
2023/01/07 09:53:49;;;;;;;9.25;2.90;;;12.70;99.90;;;;;;4951533;29;20527;-71
2023/01/07 09:56:27;;;;;;;4.25;2.30;;;12.60;99.90;;;;;;4950540;29;20540;-72
2023/01/07 09:58:53;;;;;;;3.28;2.40;;;12.80;99.90;;;;;;4947735;29;20046;-71
2023/01/07 10:01:37;;;;;;;3.95;2.35;;;12.60;99.90;;;;;;4950625;29;20039;-72
2023/01/07 10:04:43;;;;;;;3.58;2.10;;;12.70;99.90;;;;;;4968378;28;20051;-72
2023/01/07 10:07:25;;;;;;;4.18;2.20;;;12.70;99.90;;;;;;4962178;28;20073;-71
2023/01/07 10:10:07;;;;;;;4.05;2.45;;;12.70;99.90;;;;;;4964588;28;20047;-72
2023/01/07 10:12:55;;;;;;;3.35;2.00;;;12.50;99.90;;;;;;4942557;28;20484;-70
2023/01/07 10:15:38;;;;;;;5.15;2.30;;;12.70;99.90;;;;;;4926805;29;20094;-74
2023/01/07 10:18:12;;;;;;;2.45;1.80;;;12.60;99.90;;;;;;4953754;29;20253;-72
2023/01/07 10:20:56;;;;;;;3.28;2.35;;;12.60;95.50;;;;;;4951145;29;20043;-73
2023/01/07 10:23:27;;;;;;;2.30;1.70;;;12.60;66.20;;;;;;4946566;28;20039;-72
2023/01/07 10:25:55;;;;;;;3.53;1.95;;;12.80;48.10;;;;;;4951479;29;20046;-72
2023/01/07 10:28:40;;;;;;;3.90;2.05;;;13.00;45.00;;;;;;4948686;29;20035;-72
2023/01/07 10:31:09;;;;;;;4.38;1.85;;;13.40;50.20;;;;;;4950611;29;20114;-69
2023/01/07 10:33:35;;;;;;;4.78;2.42;;;13.40;1.00;;;;;;4949150;29;20046;-71
2023/01/07 10:36:33;;;;;;;4.70;1.77;;;13.20;1.00;;;;;;4935029;29;20697;-71
2023/01/07 10:39:27;;;;;;;3.95;1.70;;;13.00;1.00;;;;;;4922785;29;20043;-71
2023/01/07 10:41:58;;;;;;;1.70;1.40;;;13.00;1.00;;;;;;4952176;29;20043;-71
2023/01/07 10:44:43;;;;;;;4.18;1.88;;;12.90;1.00;;;;;;4952732;29;20038;-71
2023/01/07 10:47:23;;;;;;;4.60;1.55;;;13.00;1.00;;;;;;4959393;28;20126;-70
2023/01/07 10:50:08;;;;;;;2.47;1.52;;;12.90;1.00;;;;;;4963271;28;20035;-70
2023/01/07 10:52:56;;;;;;;1.70;1.60;;;12.80;1.00;;;;;;4934418;29;20098;-70
2023/01/07 10:55:42;;;;;;;1.50;1.30;;;12.80;1.00;;;;;;4952226;29;20090;-71
2023/01/07 10:58:10;;;;;;;1.33;1.23;;;12.80;99.90;;;;;;4964319;28;20081;-71
2023/01/07 11:00:37;;;;;;;2.10;1.60;;;12.90;99.90;;;;;;4952780;29;20049;-71
2023/01/07 11:03:03;;;;;;;4.18;2.05;;;12.90;99.90;;;;;;4967642;28;20055;-71
2023/01/07 11:05:37;;;;;;;2.42;1.50;;;13.00;99.90;;;;;;4949988;28;20134;-70
2023/01/07 11:08:21;;;;;;;1.75;1.38;;;13.00;99.90;;;;;;4950535;29;20075;-71
2023/01/07 11:10:47;;;;;;;1.50;1.17;;;13.00;99.90;;;;;;4952364;29;20081;-71
2023/01/07 11:13:17;;;;;;;2.17;1.30;;;12.90;99.90;;;;;;4952514;29;20067;-70
2023/01/07 11:15:49;;;;;;;2.03;1.50;;;12.90;99.90;;;;;;4951611;29;20047;-70
2023/01/07 11:18:39;;;;;;;2.97;1.77;;;12.90;99.90;;;;;;4948389;29;20074;-71
2023/01/07 11:21:05;;;;;;;3.35;1.42;;;12.80;99.90;;;;;;4948665;29;20497;-71
2023/01/07 11:23:33;;;;;;;5.60;1.75;;;12.90;99.90;;;;;;4932914;29;20122;-70
2023/01/07 11:26:13;;;;;;;1.45;1.20;;;12.80;99.90;;;;;;4951732;29;20054;-70
2023/01/07 11:28:47;;;;;;;2.10;1.50;;;12.90;99.90;;;;;;4952655;29;20070;-71
2023/01/07 11:31:12;;;;;;;2.22;1.30;;;13.00;99.90;;;;;;4952004;29;20050;-71
2023/01/07 11:33:45;;;;;;;1.50;1.30;;;13.00;99.90;;;;;;4950251;29;20424;-70
2023/01/07 11:36:11;;;;;;;1.42;1.30;;;13.00;99.90;;;;;;4950289;29;20050;-70
2023/01/07 11:38:38;;;;;;;1.00;1.00;;;13.00;99.90;;;;;;4952157;29;20500;-71
2023/01/07 11:41:06;;;;;;;1.77;1.38;;;12.80;99.90;;;;;;4946275;29;20036;-70
2023/01/07 11:43:36;;;;;;;2.28;1.20;;;12.80;99.90;;;;;;4968011;28;20039;-71
2023/01/07 11:46:05;;;;;;;1.38;1.25;;;12.60;99.90;;;;;;4968446;28;20587;-71
2023/01/07 11:48:33;;;;;;;1.35;1.25;;;12.70;99.90;;;;;;4968861;28;20058;-71
2023/01/07 11:51:05;;;;;;;2.17;1.25;;;12.60;99.90;;;;;;4951692;29;20050;-70
2023/01/07 11:53:49;;;;;;;0.85;0.85;;;12.70;99.90;;;;;;4951324;29;20120;-71
2023/01/07 11:56:27;;;;;;;1.42;1.33;;;12.60;99.90;;;;;;4952354;28;20047;-70
2023/01/07 11:59:14;;;;;;;2.20;1.45;;;12.70;99.90;;;;;;4949148;29;20046;-70
2023/01/07 12:01:47;;;;;;;1.42;1.20;;;12.60;99.90;;;;;;4951921;29;20040;-71
2023/01/07 12:04:31;;;;;;;1.20;1.10;;;12.60;99.90;;;;;;4950203;28;20102;-71
2023/01/07 12:07:05;;;;;;;1.23;1.10;;;12.60;99.90;;;;;;4951866;29;20126;-71
2023/01/07 12:09:31;;;;;;;1.27;1.17;;;12.70;99.90;;;;;;4953095;28;20150;-71
2023/01/07 12:12:30;;;;;;;1.25;1.00;;;12.80;99.90;;;;;;4954309;28;20130;-71
2023/01/07 12:14:57;;;;;;;2.10;1.10;;;12.90;99.90;;;;;;4955618;29;20082;-71
2023/01/07 12:17:25;;;;;;;1.27;1.17;;;12.90;99.90;;;;;;4955325;29;20038;-71
2023/01/07 12:19:57;;;;;;;1.35;1.25;;;12.80;99.90;;;;;;4955181;29;20042;-71
2023/01/07 12:22:48;;;;;;;1.08;1.08;;;12.60;99.90;;;;;;4955610;29;20051;-71
2023/01/07 12:26:01;;;;;;;4.53;1.48;;;12.60;99.90;;;;;;4954654;29;20039;-71
2023/01/07 12:28:45;;;;;;;4.97;1.38;;;12.50;99.90;;;;;;4938392;29;20106;-71
2023/01/07 12:31:28;;;;;;;2.72;1.30;;;12.60;99.90;;;;;;4954414;29;20046;-70
2023/01/07 12:34:26;;;;;;;1.40;1.02;;;12.60;99.90;;;;;;4954302;29;20062;-71
2023/01/07 12:37:10;;;;;;;1.10;1.00;;;12.70;99.90;;;;;;4953265;29;20167;-71
2023/01/07 12:39:44;;;;;;;4.68;1.40;;;12.70;99.90;;;;;;4953308;28;20035;-72
2023/01/07 12:42:19;;;;;;;2.42;1.42;;;13.40;99.90;;;;;;4944561;29;20396;-71
2023/01/07 12:44:59;;;;;;;1.45;1.30;;;12.60;99.90;;;;;;4952872;29;20043;-71
2023/01/07 12:47:33;;;;;;;1.73;1.45;;;12.50;99.90;;;;;;4954913;29;20049;-71
2023/01/07 12:50:28;;;;;;;1.88;1.30;;;12.50;99.90;;;;;;4937623;29;20167;-71
2023/01/07 12:53:05;;;;;;;1.73;1.58;;;12.60;99.90;;;;;;4954322;29;20039;-71
2023/01/07 12:55:43;;;;;;;2.60;1.50;;;12.70;99.90;;;;;;4953658;29;20121;-72
2023/01/07 12:58:39;;;;;;;2.67;1.40;;;12.60;99.90;;;;;;4955284;29;20050;-69
2023/01/07 13:01:24;;;;;;;1.70;1.30;;;12.60;99.90;;;;;;4957771;28;20053;-71